createdAt,value
2022-12-19T00:03:11.498Z,9.00
2022-12-19T00:08:19.729Z,10.82
2022-12-19T00:13:21.675Z,9.70
2022-12-19T00:18:23.659Z,8.82
2022-12-19T00:23:26.081Z,9.70
2022-12-19T00:28:28.071Z,9.45
2022-12-19T00:33:30.676Z,10.65
2022-12-19T00:38:35.250Z,9.05
2022-12-19T00:43:37.801Z,10.70
2022-12-19T00:48:40.111Z,10.13
2022-12-19T00:53:42.680Z,10.45
2022-12-19T00:58:47.078Z,10.45
2022-12-19T01:04:25.939Z,10.63
2022-12-19T01:09:12.506Z,9.32
2022-12-19T01:14:22.310Z,11.98
2022-12-19T01:19:26.845Z,10.13
2022-12-19T01:24:28.896Z,9.77
2022-12-19T01:29:32.557Z,11.23
2022-12-19T01:34:36.460Z,10.63
2022-12-19T01:39:38.498Z,9.73
2022-12-19T01:45:19.154Z,9.40
2022-12-19T01:50:27.943Z,8.73
2022-12-19T01:55:30.241Z,9.35
2022-12-19T02:00:32.591Z,11.52
2022-12-19T02:05:35.509Z,10.15
2022-12-19T02:10:37.678Z,10.07
2022-12-19T02:16:12.977Z,10.60
2022-12-19T02:21:23.231Z,9.27
2022-12-19T02:26:37.765Z,8.48
2022-12-19T02:31:45.981Z,9.13
2022-12-19T02:36:53.030Z,9.23
2022-12-19T02:41:58.049Z,9.93
2022-12-19T02:47:01.946Z,9.32
2022-12-19T02:52:33.092Z,8.27
2022-12-19T02:57:45.237Z,7.57
2022-12-19T03:03:22.256Z,7.55
2022-12-19T03:08:33.217Z,9.13
2022-12-19T03:13:46.694Z,8.27
2022-12-19T03:18:49.481Z,10.75
2022-12-19T03:23:53.474Z,7.78
2022-12-19T03:29:34.905Z,8.35
2022-12-19T03:34:44.429Z,10.38
2022-12-19T03:39:51.084Z,8.18
2022-12-19T03:44:55.811Z,9.45
2022-12-19T03:49:58.020Z,11.02
2022-12-19T03:55:43.152Z,7.22
2022-12-19T04:00:47.554Z,10.13
2022-12-19T04:05:49.847Z,7.68
2022-12-19T04:10:55.188Z,7.00
2022-12-19T04:15:57.205Z,9.73
2022-12-19T04:21:02.925Z,9.40
2022-12-19T04:26:05.884Z,7.53
2022-12-19T04:31:08.801Z,8.23
2022-12-19T04:36:11.576Z,7.45
2022-12-19T04:41:13.998Z,8.07
2022-12-19T04:46:16.283Z,9.98
2022-12-19T04:51:20.467Z,8.38
2022-12-19T04:56:22.477Z,7.68
2022-12-19T05:01:24.794Z,8.27
2022-12-19T05:06:26.819Z,10.27
2022-12-19T05:11:28.778Z,7.45
2022-12-19T05:16:31.149Z,8.60
2022-12-19T05:21:33.458Z,10.10
2022-12-19T05:26:35.450Z,9.43
2022-12-19T05:31:37.431Z,9.65
2022-12-19T05:36:39.440Z,8.77
2022-12-19T05:41:41.604Z,11.05
2022-12-19T05:46:43.556Z,10.10
2022-12-19T05:51:45.841Z,9.32
2022-12-19T05:56:47.735Z,12.13
2022-12-19T06:01:49.880Z,12.50
2022-12-19T06:06:52.289Z,13.73
2022-12-19T06:11:54.186Z,12.18
2022-12-19T06:16:56.303Z,11.75
2022-12-19T06:21:58.481Z,14.88
2022-12-19T06:27:00.673Z,17.15
2022-12-19T06:32:02.779Z,12.57
2022-12-19T06:37:08.084Z,8.88
2022-12-19T06:42:25.846Z,9.40
2022-12-19T06:47:27.865Z,8.85
2022-12-19T06:52:30.707Z,8.05
2022-12-19T06:57:33.412Z,7.65
2022-12-19T07:02:35.537Z,7.57
2022-12-19T07:07:38.106Z,8.18
2022-12-19T07:12:40.009Z,8.77
2022-12-19T07:17:41.987Z,9.10
2022-12-19T07:22:44.533Z,11.13
2022-12-19T07:27:46.618Z,10.55
2022-12-19T07:32:48.825Z,13.20
2022-12-19T07:37:51.336Z,18.23
2022-12-19T07:42:53.835Z,11.05
2022-12-19T07:48:00.935Z,13.43
2022-12-19T07:53:03.027Z,12.85
2022-12-19T07:58:04.917Z,15.73
2022-12-19T08:03:06.905Z,32.33
2022-12-19T08:08:10.111Z,16.65
2022-12-19T08:13:12.142Z,16.45
2022-12-19T08:18:14.127Z,13.32
2022-12-19T08:23:16.101Z,13.13
2022-12-19T08:28:18.240Z,14.85
2022-12-19T08:33:20.566Z,17.27
2022-12-19T08:38:22.671Z,16.30
2022-12-19T08:43:25.183Z,15.07
2022-12-19T08:48:27.219Z,16.08
2022-12-19T08:53:30.881Z,16.33
2022-12-19T08:58:32.920Z,16.95
2022-12-19T09:04:11.469Z,13.82
2022-12-19T09:09:00.252Z,19.70
2022-12-19T09:14:02.908Z,18.10
2022-12-19T09:19:04.919Z,23.60
2022-12-19T09:24:08.141Z,19.33
2022-12-19T09:29:19.880Z,20.25
2022-12-19T09:34:33.023Z,18.10
2022-12-19T09:39:40.182Z,21.20
2022-12-19T09:45:14.494Z,23.48
2022-12-19T09:50:39.217Z,18.75
2022-12-19T09:55:42.150Z,23.45
2022-12-19T10:00:47.727Z,21.42
2022-12-19T10:07:16.372Z,18.48
2022-12-19T10:12:40.457Z,15.75
2022-12-19T10:17:24.439Z,19.25
2022-12-19T10:22:51.986Z,18.38
2022-12-19T10:28:19.358Z,21.63
2022-12-19T10:33:35.540Z,18.45
2022-12-19T10:38:51.815Z,18.83
2022-12-19T10:44:06.057Z,19.90
2022-12-19T10:49:15.248Z,20.42
2022-12-19T10:54:18.101Z,18.67
2022-12-19T10:59:21.661Z,19.23
2022-12-19T11:04:36.837Z,16.42
2022-12-19T11:09:47.061Z,19.15
2022-12-19T11:19:44.444Z,17.17
2022-12-19T11:30:46.078Z,17.95
2022-12-19T11:32:32.087Z,21.55
2022-12-19T11:36:58.282Z,25.02
2022-12-19T11:43:04.370Z,27.55
2022-12-19T11:48:17.522Z,17.67
2022-12-19T11:53:52.514Z,19.20
2022-12-19T11:58:59.336Z,24.63
2022-12-19T12:04:22.904Z,20.10
2022-12-19T12:14:20.080Z,17.95
2022-12-19T12:31:00.356Z,24.08
2022-12-19T12:31:49.211Z,18.50
2022-12-19T12:31:51.387Z,21.67
2022-12-19T12:35:34.976Z,19.25
2022-12-19T12:38:18.663Z,22.90
2022-12-19T12:43:25.012Z,22.13
2022-12-19T12:48:32.539Z,20.48
2022-12-19T12:53:37.679Z,18.55
2022-12-19T12:58:53.970Z,17.15
2022-12-19T13:04:05.285Z,19.27
2022-12-19T13:09:10.242Z,18.10
2022-12-19T13:14:39.784Z,21.75
2022-12-19T13:20:18.083Z,19.83
2022-12-19T13:25:35.736Z,16.98
2022-12-19T13:31:20.341Z,18.02
2022-12-19T13:39:50.343Z,21.55
2022-12-19T13:42:34.992Z,21.75
2022-12-19T13:47:41.467Z,19.90
2022-12-19T13:52:48.834Z,23.42
2022-12-19T13:57:54.926Z,21.08
2022-12-19T14:02:57.963Z,21.23
2022-12-19T14:08:02.778Z,18.50
2022-12-19T14:13:39.800Z,21.05
2022-12-19T14:18:50.972Z,22.10
2022-12-19T14:24:08.537Z,21.30
2022-12-19T14:39:44.402Z,14.93
2022-12-19T14:52:34.981Z,18.95
2022-12-19T14:54:33.735Z,19.02
2022-12-19T15:01:52.147Z,18.73
2022-12-19T15:07:07.550Z,23.15
2022-12-19T15:14:51.496Z,16.77
2022-12-19T15:17:56.040Z,19.85
2022-12-19T15:22:59.156Z,17.45
2022-12-19T15:28:01.247Z,19.77
2022-12-19T15:33:03.325Z,18.90
2022-12-19T15:38:05.358Z,19.42
2022-12-19T15:43:11.298Z,20.00
2022-12-19T15:48:26.463Z,26.73
2022-12-19T15:53:40.207Z,26.52
2022-12-19T15:58:42.965Z,17.35
2022-12-19T16:03:45.180Z,19.40
2022-12-19T16:08:47.284Z,24.67
2022-12-19T16:13:55.252Z,23.05
2022-12-19T16:18:57.252Z,22.40
2022-12-19T16:23:59.610Z,18.83
2022-12-19T16:29:02.383Z,15.93
2022-12-19T16:34:14.580Z,19.35
2022-12-19T16:39:17.062Z,16.98
2022-12-19T16:44:21.747Z,21.08
2022-12-19T16:49:23.724Z,20.45
2022-12-19T16:54:25.683Z,18.83
2022-12-19T16:59:31.661Z,18.52
2022-12-19T17:04:33.672Z,18.35
2022-12-19T17:09:35.668Z,16.08
2022-12-19T17:14:37.862Z,16.83
2022-12-19T17:19:41.837Z,18.13
2022-12-19T17:24:47.646Z,20.85
2022-12-19T17:29:49.651Z,24.02
2022-12-19T17:34:52.494Z,19.45
2022-12-19T17:39:55.368Z,19.15
2022-12-19T17:44:57.435Z,20.00
2022-12-19T17:50:00.987Z,19.17
2022-12-19T17:55:24.215Z,19.52
2022-12-19T18:00:30.741Z,18.27
2022-12-19T18:05:36.059Z,22.38
2022-12-19T18:10:38.088Z,19.63
2022-12-19T18:15:40.754Z,17.17
2022-12-19T18:20:44.331Z,18.00
2022-12-19T18:25:47.290Z,15.85
2022-12-19T18:30:50.063Z,18.88
2022-12-19T18:35:52.076Z,19.98
2022-12-19T18:40:54.137Z,17.35
2022-12-19T18:45:56.228Z,15.77
2022-12-19T18:50:59.626Z,17.00
2022-12-19T18:56:02.987Z,14.60
2022-12-19T19:01:07.474Z,18.50
2022-12-19T19:06:18.791Z,18.95
2022-12-19T19:11:23.704Z,21.08
2022-12-19T19:16:27.649Z,17.08
2022-12-19T19:21:32.570Z,17.95
2022-12-19T19:26:34.669Z,20.02
2022-12-19T19:31:39.316Z,20.23
2022-12-19T19:36:45.573Z,19.90
2022-12-19T19:41:47.525Z,20.77
2022-12-19T19:46:49.569Z,19.80
2022-12-19T19:51:55.733Z,19.67
2022-12-19T19:57:02.656Z,19.15
2022-12-19T20:02:05.099Z,19.15
2022-12-19T20:07:07.796Z,17.35
2022-12-19T20:12:09.982Z,25.27
2022-12-19T20:17:12.050Z,16.83
2022-12-19T20:22:14.166Z,26.85
2022-12-19T20:27:16.396Z,15.32
2022-12-19T20:32:18.585Z,16.42
2022-12-19T20:37:20.663Z,20.65
2022-12-19T20:42:23.068Z,20.65
2022-12-19T20:47:24.987Z,19.30
2022-12-19T20:52:27.098Z,19.23
2022-12-19T20:57:30.717Z,21.25
2022-12-19T21:03:00.201Z,19.40
2022-12-19T21:07:55.462Z,18.40
2022-12-19T21:12:57.655Z,16.38
2022-12-19T21:17:59.658Z,21.35
2022-12-19T21:23:02.093Z,17.60
2022-12-19T21:28:04.298Z,16.15
2022-12-19T21:33:06.275Z,19.38
2022-12-19T21:38:08.154Z,18.45
2022-12-19T21:43:12.224Z,21.23
2022-12-19T21:48:14.618Z,22.20
2022-12-19T21:53:16.730Z,18.67
2022-12-19T21:58:19.457Z,18.33
2022-12-19T22:03:21.806Z,20.55
2022-12-19T22:08:23.867Z,17.83
2022-12-19T22:13:26.363Z,18.63
2022-12-19T22:18:30.530Z,17.77
2022-12-19T22:23:33.419Z,17.17
2022-12-19T22:28:38.019Z,18.35
2022-12-19T22:33:40.191Z,20.27
2022-12-19T22:38:43.751Z,23.17
2022-12-19T22:43:46.463Z,19.67
2022-12-19T22:48:50.160Z,18.77
2022-12-19T22:53:52.373Z,18.70
2022-12-19T22:58:56.102Z,18.95
2022-12-19T23:03:59.766Z,18.30
2022-12-19T23:09:02.433Z,16.48
2022-12-19T23:14:05.689Z,19.42
2022-12-19T23:19:09.378Z,18.85
2022-12-19T23:24:12.049Z,16.42
2022-12-19T23:29:15.187Z,18.73
2022-12-19T23:34:17.625Z,17.40
2022-12-19T23:39:19.673Z,17.40
2022-12-19T23:44:21.711Z,18.30
2022-12-19T23:49:23.709Z,20.52
2022-12-19T23:54:25.620Z,16.85
2022-12-19T23:59:27.658Z,17.48
